sensor_id;sensor_type;location;lat;lon;timestamp;P1;durP1;ratioP1;P2;durP2;ratioP2
20734;SDS011;10528;52.124;5.196;2023-08-08T00:02:12;9.68;;;2.70;;
20734;SDS011;10528;52.124;5.196;2023-08-08T00:04:39;9.55;;;2.78;;
20734;SDS011;10528;52.124;5.196;2023-08-08T00:07:06;8.52;;;2.72;;
20734;SDS011;10528;52.124;5.196;2023-08-08T00:09:33;9.40;;;2.90;;
20734;SDS011;10528;52.124;5.196;2023-08-08T00:12:00;9.18;;;3.00;;
20734;SDS011;10528;52.124;5.196;2023-08-08T00:14:27;13.57;;;3.50;;
20734;SDS011;10528;52.124;5.196;2023-08-08T00:16:54;8.10;;;2.38;;
20734;SDS011;10528;52.124;5.196;2023-08-08T00:19:21;9.40;;;2.83;;
20734;SDS011;10528;52.124;5.196;2023-08-08T00:21:48;11.25;;;2.83;;
20734;SDS011;10528;52.124;5.196;2023-08-08T00:24:15;8.13;;;2.92;;
20734;SDS011;10528;52.124;5.196;2023-08-08T00:26:42;10.93;;;3.17;;
20734;SDS011;10528;52.124;5.196;2023-08-08T00:29:09;8.65;;;2.88;;
20734;SDS011;10528;52.124;5.196;2023-08-08T00:31:36;9.80;;;2.88;;
20734;SDS011;10528;52.124;5.196;2023-08-08T00:34:03;10.05;;;2.70;;
20734;SDS011;10528;52.124;5.196;2023-08-08T00:36:30;12.80;;;2.92;;
20734;SDS011;10528;52.124;5.196;2023-08-08T00:38:57;5.65;;;2.65;;
20734;SDS011;10528;52.124;5.196;2023-08-08T00:41:25;8.80;;;3.45;;
20734;SDS011;10528;52.124;5.196;2023-08-08T00:43:52;10.85;;;2.72;;
20734;SDS011;10528;52.124;5.196;2023-08-08T00:46:20;8.77;;;2.83;;
20734;SDS011;10528;52.124;5.196;2023-08-08T00:48:48;10.57;;;3.17;;
20734;SDS011;10528;52.124;5.196;2023-08-08T00:51:16;13.13;;;3.22;;
20734;SDS011;10528;52.124;5.196;2023-08-08T00:53:45;9.35;;;2.97;;
20734;SDS011;10528;52.124;5.196;2023-08-08T00:56:13;12.55;;;3.03;;
20734;SDS011;10528;52.124;5.196;2023-08-08T00:58:43;10.85;;;3.05;;
20734;SDS011;10528;52.124;5.196;2023-08-08T01:01:16;13.05;;;3.50;;
20734;SDS011;10528;52.124;5.196;2023-08-08T01:03:44;10.85;;;3.08;;
20734;SDS011;10528;52.124;5.196;2023-08-08T01:09:21;9.65;;;3.45;;
20734;SDS011;10528;52.124;5.196;2023-08-08T01:11:59;8.57;;;2.55;;
20734;SDS011;10528;52.124;5.196;2023-08-08T01:14:29;11.13;;;3.00;;
20734;SDS011;10528;52.124;5.196;2023-08-08T01:16:59;9.48;;;3.20;;
20734;SDS011;10528;52.124;5.196;2023-08-08T01:19:28;8.68;;;3.25;;
20734;SDS011;10528;52.124;5.196;2023-08-08T01:22:01;11.60;;;3.45;;
20734;SDS011;10528;52.124;5.196;2023-08-08T01:24:32;8.88;;;4.07;;
20734;SDS011;10528;52.124;5.196;2023-08-08T01:27:04;10.40;;;2.88;;
20734;SDS011;10528;52.124;5.196;2023-08-08T01:29:32;10.48;;;3.08;;
20734;SDS011;10528;52.124;5.196;2023-08-08T01:31:59;8.57;;;2.60;;
20734;SDS011;10528;52.124;5.196;2023-08-08T01:34:26;8.43;;;2.85;;
20734;SDS011;10528;52.124;5.196;2023-08-08T01:39:30;8.40;;;2.80;;
20734;SDS011;10528;52.124;5.196;2023-08-08T01:41:59;11.05;;;3.10;;
20734;SDS011;10528;52.124;5.196;2023-08-08T01:44:28;6.55;;;2.95;;
20734;SDS011;10528;52.124;5.196;2023-08-08T01:46:59;10.02;;;3.35;;
20734;SDS011;10528;52.124;5.196;2023-08-08T01:49:26;6.20;;;2.50;;
20734;SDS011;10528;52.124;5.196;2023-08-08T01:51:54;9.40;;;2.80;;
20734;SDS011;10528;52.124;5.196;2023-08-08T01:54:21;8.90;;;3.33;;
20734;SDS011;10528;52.124;5.196;2023-08-08T01:56:49;9.27;;;2.58;;
20734;SDS011;10528;52.124;5.196;2023-08-08T01:59:16;7.13;;;2.72;;
20734;SDS011;10528;52.124;5.196;2023-08-08T02:01:43;7.43;;;2.75;;
20734;SDS011;10528;52.124;5.196;2023-08-08T02:04:10;9.10;;;2.60;;
20734;SDS011;10528;52.124;5.196;2023-08-08T02:06:37;7.88;;;2.83;;
20734;SDS011;10528;52.124;5.196;2023-08-08T02:09:04;5.85;;;2.10;;
20734;SDS011;10528;52.124;5.196;2023-08-08T02:11:33;6.85;;;2.05;;
20734;SDS011;10528;52.124;5.196;2023-08-08T02:14:00;9.13;;;2.33;;
20734;SDS011;10528;52.124;5.196;2023-08-08T02:16:27;6.47;;;2.25;;
20734;SDS011;10528;52.124;5.196;2023-08-08T02:18:54;9.35;;;3.03;;
20734;SDS011;10528;52.124;5.196;2023-08-08T02:21:21;8.48;;;2.30;;
20734;SDS011;10528;52.124;5.196;2023-08-08T02:23:48;6.28;;;2.00;;
20734;SDS011;10528;52.124;5.196;2023-08-08T02:26:15;5.15;;;2.05;;
20734;SDS011;10528;52.124;5.196;2023-08-08T02:28:42;3.70;;;1.90;;
20734;SDS011;10528;52.124;5.196;2023-08-08T02:31:09;5.20;;;2.20;;
20734;SDS011;10528;52.124;5.196;2023-08-08T02:33:36;7.30;;;1.98;;
20734;SDS011;10528;52.124;5.196;2023-08-08T02:36:03;5.45;;;2.15;;
20734;SDS011;10528;52.124;5.196;2023-08-08T02:38:30;6.18;;;2.00;;
20734;SDS011;10528;52.124;5.196;2023-08-08T02:40:57;4.80;;;2.00;;
20734;SDS011;10528;52.124;5.196;2023-08-08T02:43:24;3.47;;;2.28;;
20734;SDS011;10528;52.124;5.196;2023-08-08T02:45:51;5.32;;;1.85;;
20734;SDS011;10528;52.124;5.196;2023-08-08T02:48:18;7.32;;;2.00;;
20734;SDS011;10528;52.124;5.196;2023-08-08T02:50:45;4.93;;;2.28;;
20734;SDS011;10528;52.124;5.196;2023-08-08T02:53:12;5.03;;;1.98;;
20734;SDS011;10528;52.124;5.196;2023-08-08T02:55:44;5.30;;;1.90;;
20734;SDS011;10528;52.124;5.196;2023-08-08T02:58:11;4.90;;;1.83;;
20734;SDS011;10528;52.124;5.196;2023-08-08T03:00:38;5.40;;;1.77;;
20734;SDS011;10528;52.124;5.196;2023-08-08T03:03:09;4.72;;;1.90;;
20734;SDS011;10528;52.124;5.196;2023-08-08T03:05:36;5.85;;;2.40;;
20734;SDS011;10528;52.124;5.196;2023-08-08T03:08:03;6.15;;;2.40;;
20734;SDS011;10528;52.124;5.196;2023-08-08T03:10:31;5.18;;;2.30;;
20734;SDS011;10528;52.124;5.196;2023-08-08T03:12:58;8.43;;;2.10;;
20734;SDS011;10528;52.124;5.196;2023-08-08T03:15:26;5.10;;;2.08;;
20734;SDS011;10528;52.124;5.196;2023-08-08T03:17:53;6.05;;;2.47;;
20734;SDS011;10528;52.124;5.196;2023-08-08T03:20:21;6.50;;;2.25;;
20734;SDS011;10528;52.124;5.196;2023-08-08T03:22:48;3.85;;;2.17;;
20734;SDS011;10528;52.124;5.196;2023-08-08T03:25:15;6.78;;;2.70;;
20734;SDS011;10528;52.124;5.196;2023-08-08T03:27:42;7.10;;;2.22;;
20734;SDS011;10528;52.124;5.196;2023-08-08T03:30:12;7.63;;;2.53;;
20734;SDS011;10528;52.124;5.196;2023-08-08T03:32:42;6.68;;;2.20;;
20734;SDS011;10528;52.124;5.196;2023-08-08T03:35:09;6.65;;;2.10;;
20734;SDS011;10528;52.124;5.196;2023-08-08T03:37:37;5.53;;;2.30;;
20734;SDS011;10528;52.124;5.196;2023-08-08T03:40:04;6.03;;;2.03;;
20734;SDS011;10528;52.124;5.196;2023-08-08T03:42:34;5.53;;;1.95;;
20734;SDS011;10528;52.124;5.196;2023-08-08T03:45:01;7.20;;;2.00;;
20734;SDS011;10528;52.124;5.196;2023-08-08T03:47:29;4.22;;;1.88;;
20734;SDS011;10528;52.124;5.196;2023-08-08T03:49:56;4.68;;;1.77;;
20734;SDS011;10528;52.124;5.196;2023-08-08T03:52:24;3.95;;;2.17;;
20734;SDS011;10528;52.124;5.196;2023-08-08T03:54:51;7.53;;;2.20;;
20734;SDS011;10528;52.124;5.196;2023-08-08T03:57:20;4.38;;;2.08;;
20734;SDS011;10528;52.124;5.196;2023-08-08T03:59:47;3.45;;;1.90;;
20734;SDS011;10528;52.124;5.196;2023-08-08T04:02:14;3.60;;;1.92;;
20734;SDS011;10528;52.124;5.196;2023-08-08T04:04:41;4.30;;;1.80;;
20734;SDS011;10528;52.124;5.196;2023-08-08T04:07:08;5.82;;;2.30;;
20734;SDS011;10528;52.124;5.196;2023-08-08T04:09:35;3.92;;;1.85;;
20734;SDS011;10528;52.124;5.196;2023-08-08T04:12:02;3.75;;;1.65;;
20734;SDS011;10528;52.124;5.196;2023-08-08T04:14:29;5.03;;;1.60;;
20734;SDS011;10528;52.124;5.196;2023-08-08T04:16:56;4.25;;;1.83;;
20734;SDS011;10528;52.124;5.196;2023-08-08T04:19:23;4.57;;;2.03;;
20734;SDS011;10528;52.124;5.196;2023-08-08T04:21:50;5.95;;;1.63;;
20734;SDS011;10528;52.124;5.196;2023-08-08T04:24:17;3.67;;;1.88;;
20734;SDS011;10528;52.124;5.196;2023-08-08T04:26:44;5.97;;;1.70;;
20734;SDS011;10528;52.124;5.196;2023-08-08T04:29:11;4.50;;;1.65;;
20734;SDS011;10528;52.124;5.196;2023-08-08T04:31:38;9.25;;;2.03;;
20734;SDS011;10528;52.124;5.196;2023-08-08T04:34:05;4.28;;;1.55;;
20734;SDS011;10528;52.124;5.196;2023-08-08T04:36:32;4.95;;;1.60;;
20734;SDS011;10528;52.124;5.196;2023-08-08T04:38:59;6.22;;;1.70;;
20734;SDS011;10528;52.124;5.196;2023-08-08T04:41:26;4.78;;;1.70;;
20734;SDS011;10528;52.124;5.196;2023-08-08T04:43:53;3.53;;;1.50;;
20734;SDS011;10528;52.124;5.196;2023-08-08T04:46:20;6.53;;;2.05;;
20734;SDS011;10528;52.124;5.196;2023-08-08T04:48:47;3.83;;;1.42;;
20734;SDS011;10528;52.124;5.196;2023-08-08T04:51:14;5.95;;;2.05;;
20734;SDS011;10528;52.124;5.196;2023-08-08T04:53:41;5.63;;;1.65;;
20734;SDS011;10528;52.124;5.196;2023-08-08T04:56:08;4.80;;;1.92;;
20734;SDS011;10528;52.124;5.196;2023-08-08T04:58:34;10.25;;;2.10;;
20734;SDS011;10528;52.124;5.196;2023-08-08T05:01:01;3.25;;;1.38;;
20734;SDS011;10528;52.124;5.196;2023-08-08T05:03:29;4.63;;;1.52;;
20734;SDS011;10528;52.124;5.196;2023-08-08T05:05:56;4.47;;;1.80;;
20734;SDS011;10528;52.124;5.196;2023-08-08T05:08:25;5.65;;;1.83;;
20734;SDS011;10528;52.124;5.196;2023-08-08T05:10:52;6.22;;;1.92;;
20734;SDS011;10528;52.124;5.196;2023-08-08T05:13:19;5.50;;;1.83;;
20734;SDS011;10528;52.124;5.196;2023-08-08T05:15:46;4.18;;;1.75;;
20734;SDS011;10528;52.124;5.196;2023-08-08T05:18:13;5.68;;;2.10;;
20734;SDS011;10528;52.124;5.196;2023-08-08T05:20:40;3.97;;;1.60;;
20734;SDS011;10528;52.124;5.196;2023-08-08T05:23:07;5.95;;;1.90;;
20734;SDS011;10528;52.124;5.196;2023-08-08T05:25:34;6.53;;;2.33;;
20734;SDS011;10528;52.124;5.196;2023-08-08T05:28:01;6.97;;;2.10;;
20734;SDS011;10528;52.124;5.196;2023-08-08T05:30:29;5.15;;;1.90;;
20734;SDS011;10528;52.124;5.196;2023-08-08T05:32:56;5.40;;;2.13;;
20734;SDS011;10528;52.124;5.196;2023-08-08T05:35:23;6.97;;;2.00;;
20734;SDS011;10528;52.124;5.196;2023-08-08T05:37:50;5.50;;;2.22;;
20734;SDS011;10528;52.124;5.196;2023-08-08T05:40:17;6.70;;;1.90;;
20734;SDS011;10528;52.124;5.196;2023-08-08T05:42:43;5.72;;;2.00;;
20734;SDS011;10528;52.124;5.196;2023-08-08T05:45:10;5.93;;;2.10;;
20734;SDS011;10528;52.124;5.196;2023-08-08T05:47:37;3.75;;;1.60;;
20734;SDS011;10528;52.124;5.196;2023-08-08T05:50:05;6.20;;;1.90;;
20734;SDS011;10528;52.124;5.196;2023-08-08T05:52:33;5.50;;;1.75;;
20734;SDS011;10528;52.124;5.196;2023-08-08T05:55:00;6.60;;;1.80;;
20734;SDS011;10528;52.124;5.196;2023-08-08T05:57:27;6.82;;;2.05;;
20734;SDS011;10528;52.124;5.196;2023-08-08T05:59:54;7.75;;;1.60;;
20734;SDS011;10528;52.124;5.196;2023-08-08T06:02:21;4.75;;;1.45;;
20734;SDS011;10528;52.124;5.196;2023-08-08T06:04:48;4.65;;;1.50;;
20734;SDS011;10528;52.124;5.196;2023-08-08T06:07:14;4.57;;;1.50;;
20734;SDS011;10528;52.124;5.196;2023-08-08T06:09:41;5.70;;;1.67;;
20734;SDS011;10528;52.124;5.196;2023-08-08T06:12:09;5.05;;;1.92;;
20734;SDS011;10528;52.124;5.196;2023-08-08T06:14:36;5.80;;;2.10;;
20734;SDS011;10528;52.124;5.196;2023-08-08T06:17:03;3.38;;;1.35;;
20734;SDS011;10528;52.124;5.196;2023-08-08T06:19:31;8.27;;;1.60;;
20734;SDS011;10528;52.124;5.196;2023-08-08T06:21:58;8.23;;;1.55;;
20734;SDS011;10528;52.124;5.196;2023-08-08T06:24:26;2.22;;;0.90;;
20734;SDS011;10528;52.124;5.196;2023-08-08T06:26:52;5.97;;;1.15;;
20734;SDS011;10528;52.124;5.196;2023-08-08T06:29:20;4.97;;;1.17;;
20734;SDS011;10528;52.124;5.196;2023-08-08T06:31:47;3.95;;;0.90;;
20734;SDS011;10528;52.124;5.196;2023-08-08T06:34:14;5.28;;;1.20;;
20734;SDS011;10528;52.124;5.196;2023-08-08T06:36:41;5.13;;;0.90;;
20734;SDS011;10528;52.124;5.196;2023-08-08T06:39:09;3.13;;;0.90;;
20734;SDS011;10528;52.124;5.196;2023-08-08T06:41:37;4.30;;;1.00;;
20734;SDS011;10528;52.124;5.196;2023-08-08T06:44:04;2.60;;;1.10;;
20734;SDS011;10528;52.124;5.196;2023-08-08T06:46:33;2.00;;;0.77;;
20734;SDS011;10528;52.124;5.196;2023-08-08T06:49:00;1.83;;;0.85;;
20734;SDS011;10528;52.124;5.196;2023-08-08T06:51:27;2.47;;;0.90;;
20734;SDS011;10528;52.124;5.196;2023-08-08T06:53:54;5.82;;;0.95;;
20734;SDS011;10528;52.124;5.196;2023-08-08T06:56:21;4.88;;;1.17;;
20734;SDS011;10528;52.124;5.196;2023-08-08T06:58:48;2.45;;;0.70;;
20734;SDS011;10528;52.124;5.196;2023-08-08T07:01:15;5.05;;;1.38;;
20734;SDS011;10528;52.124;5.196;2023-08-08T07:03:42;4.15;;;1.33;;
20734;SDS011;10528;52.124;5.196;2023-08-08T07:06:10;4.60;;;0.85;;
20734;SDS011;10528;52.124;5.196;2023-08-08T07:08:37;4.10;;;0.93;;
20734;SDS011;10528;52.124;5.196;2023-08-08T07:11:07;3.90;;;0.68;;
20734;SDS011;10528;52.124;5.196;2023-08-08T07:13:34;3.05;;;0.80;;
20734;SDS011;10528;52.124;5.196;2023-08-08T07:16:01;3.28;;;0.80;;
20734;SDS011;10528;52.124;5.196;2023-08-08T07:18:28;4.93;;;0.88;;
20734;SDS011;10528;52.124;5.196;2023-08-08T07:20:55;4.40;;;0.70;;
20734;SDS011;10528;52.124;5.196;2023-08-08T07:23:23;3.10;;;0.60;;
20734;SDS011;10528;52.124;5.196;2023-08-08T07:25:50;1.33;;;0.52;;
20734;SDS011;10528;52.124;5.196;2023-08-08T07:28:17;1.70;;;0.60;;
20734;SDS011;10528;52.124;5.196;2023-08-08T07:30:44;1.92;;;0.77;;
20734;SDS011;10528;52.124;5.196;2023-08-08T07:33:11;4.10;;;0.70;;
20734;SDS011;10528;52.124;5.196;2023-08-08T07:35:39;1.58;;;0.55;;
20734;SDS011;10528;52.124;5.196;2023-08-08T07:38:07;2.35;;;0.57;;
20734;SDS011;10528;52.124;5.196;2023-08-08T07:40:34;2.15;;;0.70;;
20734;SDS011;10528;52.124;5.196;2023-08-08T07:43:01;3.20;;;0.70;;
20734;SDS011;10528;52.124;5.196;2023-08-08T07:45:29;4.55;;;0.70;;
20734;SDS011;10528;52.124;5.196;2023-08-08T07:47:56;3.20;;;0.75;;
20734;SDS011;10528;52.124;5.196;2023-08-08T07:50:23;0.80;;;0.50;;
20734;SDS011;10528;52.124;5.196;2023-08-08T07:52:50;2.90;;;0.63;;
20734;SDS011;10528;52.124;5.196;2023-08-08T07:55:16;1.50;;;0.52;;
20734;SDS011;10528;52.124;5.196;2023-08-08T07:57:43;2.38;;;0.60;;
20734;SDS011;10528;52.124;5.196;2023-08-08T08:00:11;2.92;;;0.57;;
20734;SDS011;10528;52.124;5.196;2023-08-08T08:02:42;1.70;;;0.50;;
20734;SDS011;10528;52.124;5.196;2023-08-08T08:05:11;2.08;;;0.60;;
20734;SDS011;10528;52.124;5.196;2023-08-08T08:07:40;1.92;;;0.50;;
20734;SDS011;10528;52.124;5.196;2023-08-08T08:10:08;2.08;;;0.60;;
20734;SDS011;10528;52.124;5.196;2023-08-08T08:12:40;2.97;;;0.55;;
20734;SDS011;10528;52.124;5.196;2023-08-08T08:15:08;2.22;;;0.40;;
20734;SDS011;10528;52.124;5.196;2023-08-08T08:17:36;1.27;;;0.45;;
20734;SDS011;10528;52.124;5.196;2023-08-08T08:20:03;1.58;;;0.82;;
20734;SDS011;10528;52.124;5.196;2023-08-08T08:22:33;1.85;;;0.60;;
20734;SDS011;10528;52.124;5.196;2023-08-08T08:25:00;1.48;;;0.50;;
20734;SDS011;10528;52.124;5.196;2023-08-08T08:27:27;4.30;;;0.50;;
20734;SDS011;10528;52.124;5.196;2023-08-08T08:29:54;1.60;;;0.60;;
20734;SDS011;10528;52.124;5.196;2023-08-08T08:32:21;4.30;;;0.52;;
20734;SDS011;10528;52.124;5.196;2023-08-08T08:34:48;2.33;;;0.45;;
20734;SDS011;10528;52.124;5.196;2023-08-08T08:37:15;1.90;;;0.68;;
20734;SDS011;10528;52.124;5.196;2023-08-08T08:39:42;3.90;;;0.70;;
20734;SDS011;10528;52.124;5.196;2023-08-08T08:42:09;3.28;;;0.80;;
20734;SDS011;10528;52.124;5.196;2023-08-08T08:44:42;1.05;;;0.80;;
20734;SDS011;10528;52.124;5.196;2023-08-08T08:47:10;1.70;;;0.45;;
20734;SDS011;10528;52.124;5.196;2023-08-08T08:49:41;1.65;;;0.60;;
20734;SDS011;10528;52.124;5.196;2023-08-08T08:52:11;0.47;;;0.30;;
20734;SDS011;10528;52.124;5.196;2023-08-08T08:54:39;2.05;;;0.30;;
20734;SDS011;10528;52.124;5.196;2023-08-08T08:57:06;2.63;;;0.40;;
20734;SDS011;10528;52.124;5.196;2023-08-08T08:59:33;2.17;;;0.80;;
20734;SDS011;10528;52.124;5.196;2023-08-08T09:02:00;2.30;;;0.93;;
20734;SDS011;10528;52.124;5.196;2023-08-08T09:04:29;1.92;;;0.60;;
20734;SDS011;10528;52.124;5.196;2023-08-08T09:06:59;1.95;;;0.40;;
20734;SDS011;10528;52.124;5.196;2023-08-08T09:09:26;1.15;;;0.60;;
20734;SDS011;10528;52.124;5.196;2023-08-08T09:11:58;2.63;;;0.88;;
20734;SDS011;10528;52.124;5.196;2023-08-08T09:14:26;1.80;;;0.50;;
20734;SDS011;10528;52.124;5.196;2023-08-08T09:16:53;2.53;;;0.50;;
20734;SDS011;10528;52.124;5.196;2023-08-08T09:19:21;3.05;;;0.60;;
20734;SDS011;10528;52.124;5.196;2023-08-08T09:21:49;1.50;;;0.60;;
20734;SDS011;10528;52.124;5.196;2023-08-08T09:24:17;2.60;;;0.70;;
20734;SDS011;10528;52.124;5.196;2023-08-08T09:26:45;1.02;;;0.50;;
20734;SDS011;10528;52.124;5.196;2023-08-08T09:29:12;1.55;;;0.47;;
20734;SDS011;10528;52.124;5.196;2023-08-08T09:31:43;1.13;;;0.47;;
20734;SDS011;10528;52.124;5.196;2023-08-08T09:34:14;1.23;;;0.50;;
20734;SDS011;10528;52.124;5.196;2023-08-08T09:36:40;4.13;;;1.05;;
20734;SDS011;10528;52.124;5.196;2023-08-08T09:39:07;1.95;;;0.77;;
20734;SDS011;10528;52.124;5.196;2023-08-08T09:41:34;1.73;;;0.50;;
20734;SDS011;10528;52.124;5.196;2023-08-08T09:44:01;3.03;;;0.80;;
20734;SDS011;10528;52.124;5.196;2023-08-08T09:46:29;2.80;;;0.60;;
20734;SDS011;10528;52.124;5.196;2023-08-08T09:48:58;2.80;;;0.60;;
20734;SDS011;10528;52.124;5.196;2023-08-08T09:51:26;0.43;;;0.40;;
20734;SDS011;10528;52.124;5.196;2023-08-08T09:53:54;2.58;;;0.80;;
20734;SDS011;10528;52.124;5.196;2023-08-08T09:56:23;2.05;;;0.65;;
20734;SDS011;10528;52.124;5.196;2023-08-08T09:58:52;5.40;;;0.70;;
20734;SDS011;10528;52.124;5.196;2023-08-08T10:01:20;2.83;;;0.80;;
20734;SDS011;10528;52.124;5.196;2023-08-08T10:03:48;0.60;;;0.50;;
20734;SDS011;10528;52.124;5.196;2023-08-08T10:06:17;1.23;;;0.60;;
20734;SDS011;10528;52.124;5.196;2023-08-08T10:08:45;4.65;;;1.35;;
20734;SDS011;10528;52.124;5.196;2023-08-08T10:11:13;1.95;;;0.73;;
20734;SDS011;10528;52.124;5.196;2023-08-08T10:13:50;2.65;;;0.60;;
20734;SDS011;10528;52.124;5.196;2023-08-08T10:16:20;3.65;;;0.82;;
20734;SDS011;10528;52.124;5.196;2023-08-08T10:18:55;2.03;;;0.80;;
20734;SDS011;10528;52.124;5.196;2023-08-08T10:21:25;3.25;;;1.05;;
20734;SDS011;10528;52.124;5.196;2023-08-08T10:24:02;3.53;;;0.80;;
20734;SDS011;10528;52.124;5.196;2023-08-08T10:26:33;3.03;;;0.68;;
20734;SDS011;10528;52.124;5.196;2023-08-08T10:29:18;1.55;;;0.63;;
20734;SDS011;10528;52.124;5.196;2023-08-08T10:31:52;2.22;;;0.93;;
20734;SDS011;10528;52.124;5.196;2023-08-08T10:34:40;1.77;;;0.70;;
20734;SDS011;10528;52.124;5.196;2023-08-08T10:37:13;2.65;;;0.70;;
20734;SDS011;10528;52.124;5.196;2023-08-08T10:42:45;1.05;;;0.70;;
20734;SDS011;10528;52.124;5.196;2023-08-08T10:45:14;1.55;;;0.73;;
20734;SDS011;10528;52.124;5.196;2023-08-08T10:47:43;1.40;;;0.60;;
20734;SDS011;10528;52.124;5.196;2023-08-08T10:50:15;2.15;;;0.60;;
20734;SDS011;10528;52.124;5.196;2023-08-08T10:52:52;2.20;;;0.60;;
20734;SDS011;10528;52.124;5.196;2023-08-08T11:00:36;1.77;;;0.50;;
20734;SDS011;10528;52.124;5.196;2023-08-08T11:03:08;1.48;;;0.50;;
20734;SDS011;10528;52.124;5.196;2023-08-08T11:05:36;1.70;;;0.60;;
20734;SDS011;10528;52.124;5.196;2023-08-08T11:08:05;1.63;;;0.80;;
20734;SDS011;10528;52.124;5.196;2023-08-08T11:10:37;1.50;;;0.50;;
20734;SDS011;10528;52.124;5.196;2023-08-08T11:13:06;1.73;;;0.57;;
20734;SDS011;10528;52.124;5.196;2023-08-08T11:15:35;1.98;;;0.73;;
20734;SDS011;10528;52.124;5.196;2023-08-08T11:18:05;1.55;;;0.60;;
20734;SDS011;10528;52.124;5.196;2023-08-08T11:20:33;4.25;;;0.70;;
20734;SDS011;10528;52.124;5.196;2023-08-08T11:23:02;2.25;;;0.40;;
20734;SDS011;10528;52.124;5.196;2023-08-08T11:25:36;2.63;;;0.55;;
20734;SDS011;10528;52.124;5.196;2023-08-08T11:28:06;2.08;;;0.43;;
20734;SDS011;10528;52.124;5.196;2023-08-08T11:30:34;2.97;;;0.88;;
20734;SDS011;10528;52.124;5.196;2023-08-08T11:33:04;0.90;;;0.50;;
20734;SDS011;10528;52.124;5.196;2023-08-08T11:35:34;1.85;;;0.60;;
20734;SDS011;10528;52.124;5.196;2023-08-08T11:38:02;2.72;;;0.60;;
20734;SDS011;10528;52.124;5.196;2023-08-08T11:40:34;3.00;;;0.65;;
20734;SDS011;10528;52.124;5.196;2023-08-08T11:43:01;3.65;;;0.65;;
20734;SDS011;10528;52.124;5.196;2023-08-08T11:45:29;1.88;;;0.80;;
20734;SDS011;10528;52.124;5.196;2023-08-08T11:47:58;3.03;;;0.50;;
20734;SDS011;10528;52.124;5.196;2023-08-08T11:50:26;2.13;;;0.55;;
20734;SDS011;10528;52.124;5.196;2023-08-08T11:52:54;2.88;;;0.80;;
20734;SDS011;10528;52.124;5.196;2023-08-08T11:55:28;2.35;;;0.60;;
20734;SDS011;10528;52.124;5.196;2023-08-08T11:57:56;1.05;;;0.63;;
20734;SDS011;10528;52.124;5.196;2023-08-08T12:00:29;2.28;;;0.60;;
20734;SDS011;10528;52.124;5.196;2023-08-08T12:02:57;1.63;;;0.70;;
20734;SDS011;10528;52.124;5.196;2023-08-08T12:05:27;2.67;;;0.80;;
20734;SDS011;10528;52.124;5.196;2023-08-08T12:07:54;1.83;;;0.60;;
20734;SDS011;10528;52.124;5.196;2023-08-08T12:10:22;1.73;;;0.60;;
20734;SDS011;10528;52.124;5.196;2023-08-08T12:12:54;2.20;;;0.70;;
20734;SDS011;10528;52.124;5.196;2023-08-08T12:15:33;1.92;;;0.65;;
20734;SDS011;10528;52.124;5.196;2023-08-08T12:18:02;2.50;;;0.63;;
20734;SDS011;10528;52.124;5.196;2023-08-08T12:20:30;1.55;;;0.57;;
20734;SDS011;10528;52.124;5.196;2023-08-08T12:22:58;3.53;;;0.82;;
20734;SDS011;10528;52.124;5.196;2023-08-08T12:25:26;1.98;;;0.90;;
20734;SDS011;10528;52.124;5.196;2023-08-08T12:27:53;1.60;;;0.55;;
20734;SDS011;10528;52.124;5.196;2023-08-08T12:30:21;2.25;;;0.60;;
20734;SDS011;10528;52.124;5.196;2023-08-08T12:32:48;1.63;;;0.60;;
20734;SDS011;10528;52.124;5.196;2023-08-08T12:35:15;2.58;;;1.00;;
20734;SDS011;10528;52.124;5.196;2023-08-08T12:37:43;2.53;;;0.60;;
20734;SDS011;10528;52.124;5.196;2023-08-08T12:40:10;2.00;;;0.70;;
20734;SDS011;10528;52.124;5.196;2023-08-08T12:42:37;3.22;;;0.80;;
20734;SDS011;10528;52.124;5.196;2023-08-08T12:45:05;2.20;;;0.73;;
20734;SDS011;10528;52.124;5.196;2023-08-08T12:47:33;1.70;;;0.77;;
20734;SDS011;10528;52.124;5.196;2023-08-08T12:50:06;3.13;;;0.75;;
20734;SDS011;10528;52.124;5.196;2023-08-08T12:52:34;2.30;;;1.00;;
20734;SDS011;10528;52.124;5.196;2023-08-08T12:55:02;3.78;;;0.55;;
20734;SDS011;10528;52.124;5.196;2023-08-08T12:57:29;1.98;;;0.65;;
20734;SDS011;10528;52.124;5.196;2023-08-08T12:59:57;1.63;;;0.55;;
20734;SDS011;10528;52.124;5.196;2023-08-08T13:02:24;3.50;;;0.73;;
20734;SDS011;10528;52.124;5.196;2023-08-08T13:04:51;3.75;;;0.63;;
20734;SDS011;10528;52.124;5.196;2023-08-08T13:07:18;2.42;;;0.60;;
20734;SDS011;10528;52.124;5.196;2023-08-08T13:09:45;1.40;;;0.55;;
20734;SDS011;10528;52.124;5.196;2023-08-08T13:12:12;2.47;;;0.65;;
20734;SDS011;10528;52.124;5.196;2023-08-08T13:14:39;2.80;;;0.70;;
20734;SDS011;10528;52.124;5.196;2023-08-08T13:17:06;1.67;;;0.50;;
20734;SDS011;10528;52.124;5.196;2023-08-08T13:19:33;3.00;;;0.88;;
20734;SDS011;10528;52.124;5.196;2023-08-08T13:22:00;3.50;;;0.90;;
20734;SDS011;10528;52.124;5.196;2023-08-08T13:24:28;3.60;;;0.80;;
20734;SDS011;10528;52.124;5.196;2023-08-08T13:26:55;2.35;;;0.80;;
20734;SDS011;10528;52.124;5.196;2023-08-08T13:29:22;1.17;;;0.40;;
20734;SDS011;10528;52.124;5.196;2023-08-08T13:31:49;1.98;;;0.70;;
20734;SDS011;10528;52.124;5.196;2023-08-08T13:34:16;2.90;;;0.80;;
20734;SDS011;10528;52.124;5.196;2023-08-08T13:36:43;2.67;;;0.50;;
20734;SDS011;10528;52.124;5.196;2023-08-08T13:39:10;2.47;;;0.70;;
20734;SDS011;10528;52.124;5.196;2023-08-08T13:41:37;2.05;;;0.75;;
20734;SDS011;10528;52.124;5.196;2023-08-08T13:44:04;2.15;;;0.57;;
20734;SDS011;10528;52.124;5.196;2023-08-08T13:46:31;2.80;;;0.80;;
20734;SDS011;10528;52.124;5.196;2023-08-08T13:48:59;1.73;;;0.63;;
20734;SDS011;10528;52.124;5.196;2023-08-08T13:51:26;1.75;;;0.60;;
20734;SDS011;10528;52.124;5.196;2023-08-08T13:53:54;1.15;;;0.50;;
20734;SDS011;10528;52.124;5.196;2023-08-08T13:56:21;3.05;;;0.90;;
20734;SDS011;10528;52.124;5.196;2023-08-08T13:58:49;1.60;;;0.60;;
20734;SDS011;10528;52.124;5.196;2023-08-08T14:01:15;2.67;;;0.77;;
20734;SDS011;10528;52.124;5.196;2023-08-08T14:03:43;1.75;;;0.60;;
20734;SDS011;10528;52.124;5.196;2023-08-08T14:06:11;1.08;;;0.70;;
20734;SDS011;10528;52.124;5.196;2023-08-08T14:08:38;2.45;;;0.73;;
20734;SDS011;10528;52.124;5.196;2023-08-08T14:11:05;3.38;;;0.90;;
20734;SDS011;10528;52.124;5.196;2023-08-08T14:13:32;3.30;;;0.88;;
20734;SDS011;10528;52.124;5.196;2023-08-08T14:16:00;1.40;;;0.60;;
20734;SDS011;10528;52.124;5.196;2023-08-08T14:18:28;2.03;;;0.60;;
20734;SDS011;10528;52.124;5.196;2023-08-08T14:20:54;2.95;;;0.80;;
20734;SDS011;10528;52.124;5.196;2023-08-08T14:23:21;3.42;;;0.90;;
20734;SDS011;10528;52.124;5.196;2023-08-08T14:25:48;2.85;;;0.80;;
20734;SDS011;10528;52.124;5.196;2023-08-08T14:28:15;1.58;;;0.70;;
20734;SDS011;10528;52.124;5.196;2023-08-08T14:30:42;2.58;;;0.80;;
20734;SDS011;10528;52.124;5.196;2023-08-08T14:33:09;1.52;;;0.52;;
20734;SDS011;10528;52.124;5.196;2023-08-08T14:35:36;1.95;;;0.73;;
20734;SDS011;10528;52.124;5.196;2023-08-08T14:38:03;1.63;;;0.80;;
20734;SDS011;10528;52.124;5.196;2023-08-08T14:40:30;1.73;;;0.77;;
20734;SDS011;10528;52.124;5.196;2023-08-08T14:43:01;2.08;;;0.73;;
20734;SDS011;10528;52.124;5.196;2023-08-08T14:45:28;2.13;;;0.70;;
20734;SDS011;10528;52.124;5.196;2023-08-08T14:47:56;2.28;;;0.80;;
20734;SDS011;10528;52.124;5.196;2023-08-08T14:50:23;3.53;;;0.82;;
20734;SDS011;10528;52.124;5.196;2023-08-08T14:52:50;2.40;;;0.77;;
20734;SDS011;10528;52.124;5.196;2023-08-08T14:55:17;1.65;;;0.80;;
20734;SDS011;10528;52.124;5.196;2023-08-08T14:57:44;1.15;;;0.60;;
20734;SDS011;10528;52.124;5.196;2023-08-08T15:00:11;3.55;;;0.88;;
20734;SDS011;10528;52.124;5.196;2023-08-08T15:02:38;2.20;;;0.90;;
20734;SDS011;10528;52.124;5.196;2023-08-08T15:05:06;2.67;;;0.63;;
20734;SDS011;10528;52.124;5.196;2023-08-08T15:07:33;2.83;;;0.90;;